AAL2586 KONT-KPHX
Flight info
| Callsign | AAL2586 |
|---|---|
| Flight time | 0h 53m |
| Altitude | 27000 |
| Route | RAJEE4 MTBAL CNERY BLH HYDRR1 |
| Aircraft | B738/M-SABDFGRVYL/LB2 |
Departure
| Time | 2026-05-05 04:26 |
|---|---|
| Airport | Ontario International Airport (KONT) |
Arrival
| Time | 2026-05-05 05:19 |
|---|---|
| Airport | Phoenix Sky Harbor International Airport (KPHX) |
| Time | Latitude | Longitude | Altitude | Speed | Heading |
|---|---|---|---|---|---|
| 2026-05-05 04:02 | 34.05983 | -117.59022 | 944 ft | 0 kts | 4° |
| 2026-05-05 04:12 | 34.05972 | -117.59023 | 943 ft | 2 kts | 4° |
| 2026-05-05 04:13 | 34.05957 | -117.59024 | 943 ft | 2 kts | 4° |
| 2026-05-05 04:13 | 34.05942 | -117.59026 | 942 ft | 2 kts | 6° |
| 2026-05-05 04:13 | 34.05928 | -117.59032 | 942 ft | 2 kts | 44° |
| 2026-05-05 04:13 | 34.05920 | -117.59048 | 942 ft | 2 kts | 75° |
| 2026-05-05 04:14 | 34.05919 | -117.59065 | 941 ft | 1 kts | 103° |
| 2026-05-05 04:14 | 34.05921 | -117.59073 | 941 ft | 1 kts | 111° |
| 2026-05-05 04:14 | 34.05922 | -117.59076 | 941 ft | 0 kts | 109° |
| 2026-05-05 04:20 | 34.05922 | -117.59075 | 941 ft | 0 kts | 109° |
| 2026-05-05 04:20 | 34.05908 | -117.59040 | 941 ft | 9 kts | 113° |
| 2026-05-05 04:20 | 34.05898 | -117.58916 | 941 ft | 19 kts | 90° |
| 2026-05-05 04:20 | 34.05898 | -117.58749 | 942 ft | 19 kts | 90° |
| 2026-05-05 04:21 | 34.05898 | -117.58585 | 943 ft | 18 kts | 90° |
| 2026-05-05 04:21 | 34.05898 | -117.58433 | 944 ft | 15 kts | 90° |
| 2026-05-05 04:21 | 34.05898 | -117.58319 | 944 ft | 11 kts | 94° |
| 2026-05-05 04:21 | 34.05864 | -117.58276 | 943 ft | 8 kts | 167° |
| 2026-05-05 04:22 | 34.05805 | -117.58273 | 942 ft | 4 kts | 180° |
| 2026-05-05 04:22 | 34.05795 | -117.58273 | 942 ft | 0 kts | 181° |
| 2026-05-05 04:24 | 34.05792 | -117.58273 | 942 ft | 1 kts | 181° |
| 2026-05-05 04:25 | 34.05693 | -117.58348 | 939 ft | 17 kts | 260° |
| 2026-05-05 04:25 | 34.05691 | -117.58379 | 939 ft | 5 kts | 270° |
| 2026-05-05 04:25 | 34.05690 | -117.58809 | 938 ft | 94 kts | 270° |
| 2026-05-05 04:25 | 34.05692 | -117.59897 | 989 ft | 159 kts | 270° |
| 2026-05-05 04:26 | 34.05707 | -117.61226 | 1844 ft | 163 kts | 268° |
| 2026-05-05 04:26 | 34.05442 | -117.62499 | 2745 ft | 163 kts | 239° |
| 2026-05-05 04:26 | 34.04520 | -117.63394 | 3207 ft | 184 kts | 206° |
| 2026-05-05 04:26 | 34.03213 | -117.63701 | 3715 ft | 203 kts | 180° |
| 2026-05-05 04:27 | 34.01825 | -117.63213 | 4283 ft | 220 kts | 152° |
| 2026-05-05 04:27 | 34.00558 | -117.62047 | 4861 ft | 237 kts | 140° |
| 2026-05-05 04:27 | 33.99304 | -117.60684 | 5427 ft | 254 kts | 140° |
| 2026-05-05 04:27 | 33.97924 | -117.59216 | 6037 ft | 270 kts | 141° |
| 2026-05-05 04:28 | 33.96469 | -117.57719 | 6678 ft | 282 kts | 142° |
| 2026-05-05 04:28 | 33.94947 | -117.56171 | 7159 ft | 293 kts | 142° |
| 2026-05-05 04:28 | 33.93486 | -117.54679 | 8649 ft | 270 kts | 142° |
| 2026-05-05 04:28 | 33.92009 | -117.53246 | 9332 ft | 280 kts | 147° |
| 2026-05-05 04:29 | 33.90393 | -117.51844 | 9912 ft | 293 kts | 148° |
| 2026-05-05 04:29 | 33.88723 | -117.50414 | 10556 ft | 304 kts | 148° |
| 2026-05-05 04:29 | 33.86937 | -117.48904 | 11116 ft | 318 kts | 148° |
| 2026-05-05 04:29 | 33.85091 | -117.47355 | 11625 ft | 333 kts | 148° |
| 2026-05-05 04:30 | 33.83141 | -117.45725 | 12122 ft | 349 kts | 148° |
| 2026-05-05 04:30 | 33.81112 | -117.44031 | 12583 ft | 365 kts | 148° |
| 2026-05-05 04:30 | 33.78976 | -117.42248 | 13096 ft | 379 kts | 148° |
| 2026-05-05 04:30 | 33.76796 | -117.40422 | 13822 ft | 386 kts | 148° |
| 2026-05-05 04:31 | 33.74620 | -117.38522 | 14696 ft | 390 kts | 144° |
| 2026-05-05 04:31 | 33.72686 | -117.36231 | 15586 ft | 397 kts | 131° |
| 2026-05-05 04:31 | 33.71283 | -117.33365 | 16384 ft | 408 kts | 115° |
| 2026-05-05 04:31 | 33.70541 | -117.30071 | 17213 ft | 415 kts | 102° |
| 2026-05-05 04:32 | 33.70133 | -117.26612 | 17992 ft | 420 kts | 99° |
| 2026-05-05 04:32 | 33.69804 | -117.23157 | 18683 ft | 427 kts | 99° |
| 2026-05-05 04:32 | 33.69482 | -117.19569 | 19332 ft | 433 kts | 99° |
| 2026-05-05 04:32 | 33.69159 | -117.15969 | 20003 ft | 439 kts | 99° |
| 2026-05-05 04:33 | 33.68821 | -117.12288 | 20686 ft | 444 kts | 99° |
| 2026-05-05 04:33 | 33.68476 | -117.08594 | 21296 ft | 450 kts | 100° |
| 2026-05-05 04:33 | 33.68123 | -117.04873 | 21893 ft | 456 kts | 101° |
| 2026-05-05 04:33 | 33.67760 | -117.01077 | 22463 ft | 462 kts | 101° |
| 2026-05-05 04:34 | 33.67387 | -116.97234 | 22945 ft | 469 kts | 101° |
| 2026-05-05 04:34 | 33.67008 | -116.93337 | 23573 ft | 473 kts | 101° |
| 2026-05-05 04:34 | 33.66623 | -116.89400 | 24064 ft | 479 kts | 102° |
| 2026-05-05 04:34 | 33.66233 | -116.85429 | 24602 ft | 483 kts | 102° |
| 2026-05-05 04:35 | 33.65832 | -116.81380 | 25022 ft | 490 kts | 103° |
| 2026-05-05 04:35 | 33.65431 | -116.77338 | 25498 ft | 495 kts | 103° |
| 2026-05-05 04:35 | 33.65026 | -116.73222 | 26134 ft | 495 kts | 103° |
| 2026-05-05 04:35 | 33.64630 | -116.69135 | 26757 ft | 489 kts | 105° |
| 2026-05-05 04:36 | 33.64247 | -116.65135 | 26943 ft | 482 kts | 105° |
| 2026-05-05 04:36 | 33.63856 | -116.61154 | 26985 ft | 491 kts | 105° |
| 2026-05-05 04:36 | 33.63444 | -116.57066 | 26987 ft | 499 kts | 105° |
| 2026-05-05 04:36 | 33.63026 | -116.52937 | 26981 ft | 497 kts | 105° |
| 2026-05-05 04:37 | 33.62618 | -116.48828 | 26979 ft | 495 kts | 105° |
| 2026-05-05 04:37 | 33.62208 | -116.44730 | 26970 ft | 494 kts | 105° |
| 2026-05-05 04:37 | 33.61804 | -116.40686 | 26973 ft | 494 kts | 105° |
| 2026-05-05 04:37 | 33.61388 | -116.36564 | 26965 ft | 494 kts | 105° |
| 2026-05-05 04:38 | 33.61005 | -116.32474 | 26957 ft | 501 kts | 104° |
| 2026-05-05 04:38 | 33.60754 | -116.28326 | 26948 ft | 501 kts | 101° |
| 2026-05-05 04:38 | 33.60612 | -116.24104 | 26940 ft | 506 kts | 100° |
| 2026-05-05 04:38 | 33.60528 | -116.19938 | 26939 ft | 508 kts | 99° |
| 2026-05-05 04:39 | 33.60463 | -116.15710 | 26933 ft | 507 kts | 99° |
| 2026-05-05 04:39 | 33.60401 | -116.11485 | 26928 ft | 508 kts | 99° |
| 2026-05-05 04:39 | 33.60330 | -116.07221 | 26918 ft | 508 kts | 99° |
| 2026-05-05 04:39 | 33.60255 | -116.03024 | 26924 ft | 509 kts | 99° |
| 2026-05-05 04:40 | 33.60273 | -115.98782 | 26923 ft | 510 kts | 96° |
| 2026-05-05 04:40 | 33.60392 | -115.94527 | 26918 ft | 512 kts | 95° |
| 2026-05-05 04:40 | 33.60567 | -115.90292 | 26926 ft | 508 kts | 95° |
| 2026-05-05 04:40 | 33.60754 | -115.86092 | 26919 ft | 514 kts | 94° |
| 2026-05-05 04:41 | 33.60941 | -115.81794 | 26919 ft | 511 kts | 94° |
| 2026-05-05 04:41 | 33.61118 | -115.77519 | 26924 ft | 512 kts | 95° |
| 2026-05-05 04:41 | 33.61280 | -115.73304 | 26921 ft | 512 kts | 95° |
| 2026-05-05 04:41 | 33.61436 | -115.69032 | 26919 ft | 509 kts | 95° |
| 2026-05-05 04:42 | 33.61579 | -115.64817 | 26918 ft | 510 kts | 96° |
| 2026-05-05 04:42 | 33.61711 | -115.60586 | 26918 ft | 514 kts | 95° |
| 2026-05-05 04:42 | 33.61827 | -115.56344 | 26918 ft | 508 kts | 96° |
| 2026-05-05 04:42 | 33.61837 | -115.52123 | 26919 ft | 507 kts | 98° |
| 2026-05-05 04:43 | 33.61757 | -115.47885 | 26919 ft | 505 kts | 99° |
| 2026-05-05 04:43 | 33.61635 | -115.43726 | 26908 ft | 503 kts | 101° |
| 2026-05-05 04:43 | 33.61493 | -115.39558 | 26909 ft | 506 kts | 101° |
| 2026-05-05 04:43 | 33.61343 | -115.35313 | 26907 ft | 506 kts | 100° |
| 2026-05-05 04:44 | 33.61198 | -115.31135 | 26898 ft | 504 kts | 101° |
| 2026-05-05 04:44 | 33.61067 | -115.26958 | 26900 ft | 500 kts | 101° |
| 2026-05-05 04:44 | 33.60935 | -115.22710 | 26894 ft | 505 kts | 100° |
| 2026-05-05 04:44 | 33.60811 | -115.18519 | 26896 ft | 505 kts | 100° |
| 2026-05-05 04:45 | 33.60692 | -115.14308 | 26895 ft | 507 kts | 100° |
| 2026-05-05 04:45 | 33.60577 | -115.10117 | 26903 ft | 504 kts | 100° |
| 2026-05-05 04:45 | 33.60464 | -115.05873 | 26893 ft | 503 kts | 100° |
| 2026-05-05 04:45 | 33.60350 | -115.01711 | 26884 ft | 504 kts | 100° |
| 2026-05-05 04:46 | 33.60231 | -114.97495 | 26888 ft | 506 kts | 100° |
| 2026-05-05 04:46 | 33.60112 | -114.93256 | 26883 ft | 505 kts | 101° |
| 2026-05-05 04:46 | 33.59993 | -114.89047 | 26892 ft | 502 kts | 100° |
| 2026-05-05 04:46 | 33.59875 | -114.84897 | 26896 ft | 504 kts | 100° |
| 2026-05-05 04:47 | 33.59741 | -114.80719 | 26896 ft | 503 kts | 101° |
| 2026-05-05 04:47 | 33.59477 | -114.76543 | 26897 ft | 503 kts | 105° |
| 2026-05-05 04:47 | 33.58981 | -114.72406 | 26885 ft | 497 kts | 109° |
| 2026-05-05 04:47 | 33.58335 | -114.68415 | 26896 ft | 488 kts | 111° |
| 2026-05-05 04:48 | 33.57584 | -114.64421 | 26895 ft | 491 kts | 112° |
| 2026-05-05 04:48 | 33.56786 | -114.60484 | 26894 ft | 492 kts | 114° |
| 2026-05-05 04:48 | 33.55976 | -114.56543 | 26896 ft | 487 kts | 113° |
| 2026-05-05 04:48 | 33.55154 | -114.52566 | 26895 ft | 489 kts | 113° |
| 2026-05-05 04:49 | 33.54348 | -114.48645 | 26894 ft | 491 kts | 113° |
| 2026-05-05 04:49 | 33.53532 | -114.44641 | 26900 ft | 490 kts | 113° |
| 2026-05-05 04:49 | 33.52736 | -114.40687 | 26896 ft | 490 kts | 113° |
| 2026-05-05 04:49 | 33.51943 | -114.36725 | 26895 ft | 489 kts | 113° |
| 2026-05-05 04:50 | 33.51167 | -114.32822 | 26899 ft | 490 kts | 114° |
| 2026-05-05 04:50 | 33.50375 | -114.28830 | 26903 ft | 489 kts | 113° |
| 2026-05-05 04:50 | 33.49593 | -114.24892 | 26809 ft | 485 kts | 113° |
| 2026-05-05 04:50 | 33.48822 | -114.20975 | 26377 ft | 480 kts | 113° |
| 2026-05-05 04:51 | 33.48057 | -114.17117 | 25722 ft | 483 kts | 113° |
| 2026-05-05 04:51 | 33.47282 | -114.13225 | 25145 ft | 478 kts | 112° |
| 2026-05-05 04:51 | 33.46528 | -114.09396 | 24926 ft | 466 kts | 112° |
| 2026-05-05 04:51 | 33.45804 | -114.05685 | 24841 ft | 452 kts | 113° |
| 2026-05-05 04:52 | 33.45089 | -114.02063 | 24599 ft | 447 kts | 113° |
| 2026-05-05 04:52 | 33.44379 | -113.98513 | 24347 ft | 442 kts | 114° |
| 2026-05-05 04:52 | 33.43651 | -113.94906 | 24101 ft | 445 kts | 113° |
| 2026-05-05 04:52 | 33.42929 | -113.91351 | 23932 ft | 443 kts | 113° |
| 2026-05-05 04:53 | 33.42204 | -113.87754 | 23924 ft | 440 kts | 114° |
| 2026-05-05 04:53 | 33.41488 | -113.84203 | 23921 ft | 440 kts | 114° |
| 2026-05-05 04:53 | 33.40775 | -113.80676 | 23920 ft | 440 kts | 114° |
| 2026-05-05 04:53 | 33.40055 | -113.77115 | 23922 ft | 438 kts | 114° |
| 2026-05-05 04:54 | 33.39341 | -113.73587 | 23930 ft | 443 kts | 113° |
| 2026-05-05 04:54 | 33.38618 | -113.70028 | 23923 ft | 440 kts | 114° |
| 2026-05-05 04:54 | 33.37885 | -113.66435 | 23928 ft | 441 kts | 114° |
| 2026-05-05 04:54 | 33.37159 | -113.62881 | 23924 ft | 442 kts | 113° |
| 2026-05-05 04:55 | 33.36434 | -113.59324 | 23922 ft | 440 kts | 114° |
| 2026-05-05 04:55 | 33.35715 | -113.55776 | 23923 ft | 440 kts | 113° |
| 2026-05-05 04:55 | 33.35004 | -113.52247 | 23488 ft | 434 kts | 113° |
| 2026-05-05 04:55 | 33.34303 | -113.48779 | 22852 ft | 429 kts | 113° |
| 2026-05-05 04:56 | 33.33606 | -113.45328 | 22247 ft | 423 kts | 112° |
| 2026-05-05 04:56 | 33.32974 | -113.41952 | 21992 ft | 418 kts | 110° |
| 2026-05-05 04:56 | 33.32368 | -113.38505 | 21936 ft | 426 kts | 110° |
| 2026-05-05 04:56 | 33.31786 | -113.35101 | 21929 ft | 423 kts | 109° |
| 2026-05-05 04:57 | 33.31202 | -113.31646 | 21919 ft | 424 kts | 110° |
| 2026-05-05 04:57 | 33.30613 | -113.28174 | 21704 ft | 424 kts | 110° |
| 2026-05-05 04:57 | 33.30035 | -113.24757 | 21403 ft | 416 kts | 109° |
| 2026-05-05 04:57 | 33.29469 | -113.21366 | 20949 ft | 412 kts | 108° |
| 2026-05-05 04:58 | 33.28951 | -113.17976 | 20404 ft | 414 kts | 107° |
| 2026-05-05 04:58 | 33.28466 | -113.14594 | 19845 ft | 414 kts | 105° |
| 2026-05-05 04:58 | 33.27996 | -113.11220 | 19277 ft | 412 kts | 104° |
| 2026-05-05 04:58 | 33.27612 | -113.07871 | 18980 ft | 404 kts | 99° |
| 2026-05-05 04:59 | 33.27489 | -113.04588 | 18939 ft | 392 kts | 94° |
| 2026-05-05 04:59 | 33.27517 | -113.01318 | 18809 ft | 392 kts | 92° |
| 2026-05-05 04:59 | 33.27607 | -112.98090 | 18572 ft | 391 kts | 90° |
| 2026-05-05 04:59 | 33.27717 | -112.94853 | 18322 ft | 386 kts | 90° |
| 2026-05-05 05:00 | 33.27821 | -112.91723 | 17999 ft | 380 kts | 90° |
| 2026-05-05 05:00 | 33.27916 | -112.88573 | 17578 ft | 376 kts | 90° |
| 2026-05-05 05:00 | 33.28000 | -112.85482 | 17137 ft | 373 kts | 90° |
| 2026-05-05 05:00 | 33.28078 | -112.82441 | 16994 ft | 363 kts | 90° |
| 2026-05-05 05:01 | 33.28226 | -112.79455 | 16821 ft | 358 kts | 87° |
| 2026-05-05 05:01 | 33.28492 | -112.76505 | 16579 ft | 356 kts | 84° |
| 2026-05-05 05:01 | 33.28808 | -112.73579 | 16317 ft | 352 kts | 84° |
| 2026-05-05 05:01 | 33.29118 | -112.70724 | 16062 ft | 350 kts | 85° |
| 2026-05-05 05:02 | 33.29416 | -112.67858 | 15790 ft | 348 kts | 85° |
| 2026-05-05 05:02 | 33.29703 | -112.64959 | 15554 ft | 347 kts | 85° |
| 2026-05-05 05:02 | 33.29974 | -112.62100 | 15297 ft | 345 kts | 85° |
| 2026-05-05 05:02 | 33.30238 | -112.59267 | 15046 ft | 344 kts | 86° |
| 2026-05-05 05:03 | 33.30499 | -112.56445 | 14796 ft | 340 kts | 86° |
| 2026-05-05 05:03 | 33.30753 | -112.53690 | 14555 ft | 333 kts | 85° |
| 2026-05-05 05:03 | 33.31005 | -112.50940 | 14197 ft | 330 kts | 85° |
| 2026-05-05 05:03 | 33.31252 | -112.48251 | 13803 ft | 329 kts | 85° |
| 2026-05-05 05:04 | 33.31504 | -112.45518 | 13403 ft | 327 kts | 85° |
| 2026-05-05 05:04 | 33.31749 | -112.42851 | 13025 ft | 325 kts | 85° |
| 2026-05-05 05:04 | 33.31994 | -112.40177 | 12638 ft | 323 kts | 85° |
| 2026-05-05 05:04 | 33.32236 | -112.37516 | 12257 ft | 321 kts | 85° |
| 2026-05-05 05:05 | 33.32475 | -112.34870 | 11873 ft | 319 kts | 86° |
| 2026-05-05 05:05 | 33.32713 | -112.32238 | 11491 ft | 317 kts | 86° |
| 2026-05-05 05:05 | 33.32953 | -112.29620 | 11105 ft | 315 kts | 86° |
| 2026-05-05 05:05 | 33.33190 | -112.27049 | 10723 ft | 312 kts | 86° |
| 2026-05-05 05:06 | 33.33425 | -112.24496 | 10357 ft | 305 kts | 87° |
| 2026-05-05 05:06 | 33.33654 | -112.21997 | 10025 ft | 301 kts | 86° |
| 2026-05-05 05:06 | 33.33877 | -112.19560 | 9890 ft | 290 kts | 87° |
| 2026-05-05 05:06 | 33.34094 | -112.17176 | 9517 ft | 290 kts | 87° |
| 2026-05-05 05:07 | 33.34307 | -112.14798 | 9247 ft | 284 kts | 87° |
| 2026-05-05 05:07 | 33.34515 | -112.12480 | 9166 ft | 272 kts | 87° |
| 2026-05-05 05:07 | 33.34710 | -112.10310 | 9092 ft | 260 kts | 88° |
| 2026-05-05 05:07 | 33.34782 | -112.08188 | 8966 ft | 250 kts | 94° |
| 2026-05-05 05:08 | 33.34757 | -112.06116 | 8632 ft | 251 kts | 95° |
| 2026-05-05 05:08 | 33.34723 | -112.04025 | 8333 ft | 251 kts | 95° |
| 2026-05-05 05:08 | 33.34695 | -112.01951 | 8062 ft | 249 kts | 94° |
| 2026-05-05 05:08 | 33.34671 | -111.99875 | 7801 ft | 247 kts | 94° |
| 2026-05-05 05:09 | 33.34645 | -111.97823 | 7543 ft | 245 kts | 94° |
| 2026-05-05 05:09 | 33.34618 | -111.95791 | 7287 ft | 244 kts | 94° |
| 2026-05-05 05:09 | 33.34592 | -111.93790 | 7059 ft | 241 kts | 94° |
| 2026-05-05 05:09 | 33.34587 | -111.91797 | 6982 ft | 240 kts | 91° |
| 2026-05-05 05:10 | 33.34637 | -111.89783 | 6913 ft | 244 kts | 90° |
| 2026-05-05 05:10 | 33.34701 | -111.87723 | 6769 ft | 245 kts | 91° |
| 2026-05-05 05:10 | 33.34755 | -111.85688 | 6577 ft | 244 kts | 90° |
| 2026-05-05 05:10 | 33.34802 | -111.83674 | 6385 ft | 242 kts | 90° |
| 2026-05-05 05:11 | 33.34849 | -111.81689 | 6201 ft | 242 kts | 90° |
| 2026-05-05 05:11 | 33.34895 | -111.79688 | 6083 ft | 240 kts | 91° |
| 2026-05-05 05:11 | 33.34940 | -111.77685 | 5975 ft | 238 kts | 90° |
| 2026-05-05 05:11 | 33.34985 | -111.75719 | 5862 ft | 239 kts | 91° |
| 2026-05-05 05:12 | 33.35031 | -111.73730 | 5749 ft | 237 kts | 90° |
| 2026-05-05 05:12 | 33.35076 | -111.71763 | 5654 ft | 239 kts | 91° |
| 2026-05-05 05:12 | 33.35388 | -111.69816 | 5552 ft | 240 kts | 65° |
| 2026-05-05 05:12 | 33.36531 | -111.68417 | 5455 ft | 241 kts | 26° |
| 2026-05-05 05:13 | 33.38161 | -111.68027 | 5363 ft | 241 kts | 360° |
| 2026-05-05 05:13 | 33.39858 | -111.68028 | 5264 ft | 240 kts | 358° |
| 2026-05-05 05:13 | 33.41512 | -111.68075 | 5166 ft | 238 kts | 350° |
| 2026-05-05 05:13 | 33.42980 | -111.68890 | 5066 ft | 233 kts | 314° |
| 2026-05-05 05:14 | 33.43764 | -111.70525 | 4972 ft | 226 kts | 283° |
| 2026-05-05 05:14 | 33.43961 | -111.72383 | 4879 ft | 223 kts | 270° |
| 2026-05-05 05:14 | 33.43994 | -111.74232 | 4780 ft | 223 kts | 268° |
| 2026-05-05 05:14 | 33.44012 | -111.76101 | 4684 ft | 221 kts | 268° |
| 2026-05-05 05:15 | 33.44026 | -111.77940 | 4568 ft | 222 kts | 268° |
| 2026-05-05 05:15 | 33.44034 | -111.79791 | 4270 ft | 222 kts | 267° |
| 2026-05-05 05:15 | 33.44039 | -111.81616 | 3971 ft | 218 kts | 268° |
| 2026-05-05 05:15 | 33.44044 | -111.83412 | 3680 ft | 214 kts | 268° |
| 2026-05-05 05:16 | 33.44052 | -111.85194 | 3393 ft | 210 kts | 268° |
| 2026-05-05 05:16 | 33.44059 | -111.86854 | 3127 ft | 194 kts | 267° |
| 2026-05-05 05:16 | 33.44061 | -111.88403 | 2878 ft | 178 kts | 268° |
| 2026-05-05 05:16 | 33.44063 | -111.89837 | 2649 ft | 165 kts | 267° |
| 2026-05-05 05:17 | 33.44068 | -111.91135 | 2444 ft | 149 kts | 268° |
| 2026-05-05 05:17 | 33.44067 | -111.92303 | 2249 ft | 135 kts | 268° |
| 2026-05-05 05:17 | 33.44067 | -111.93405 | 2088 ft | 133 kts | 268° |
| 2026-05-05 05:17 | 33.44068 | -111.94525 | 1910 ft | 132 kts | 268° |
| 2026-05-05 05:18 | 33.44075 | -111.95604 | 1729 ft | 130 kts | 269° |
| 2026-05-05 05:18 | 33.44098 | -111.96682 | 1576 ft | 129 kts | 268° |
| 2026-05-05 05:18 | 33.44091 | -111.97752 | 1412 ft | 128 kts | 268° |
| 2026-05-05 05:18 | 33.44094 | -111.98809 | 1252 ft | 126 kts | 268° |
| 2026-05-05 05:19 | 33.44087 | -111.99840 | 1144 ft | 117 kts | 268° |
| 2026-05-05 05:19 | 33.44082 | -112.00572 | 1134 ft | 50 kts | 270° |
| 2026-05-05 05:19 | 33.44019 | -112.00734 | 1134 ft | 14 kts | 194° |
| 2026-05-05 05:19 | 33.43922 | -112.00731 | 1134 ft | 13 kts | 160° |
| 2026-05-05 05:20 | 33.43884 | -112.00661 | 1134 ft | 12 kts | 79° |
| 2026-05-05 05:20 | 33.43901 | -112.00528 | 1134 ft | 18 kts | 84° |
| 2026-05-05 05:20 | 33.43905 | -112.00377 | 1135 ft | 17 kts | 90° |
| 2026-05-05 05:20 | 33.43904 | -112.00233 | 1135 ft | 17 kts | 91° |
| 2026-05-05 05:21 | 33.43901 | -112.00111 | 1135 ft | 9 kts | 91° |
| 2026-05-05 05:21 | 33.43881 | -112.00043 | 1135 ft | 9 kts | 152° |
| 2026-05-05 05:21 | 33.43835 | -112.00000 | 1135 ft | 3 kts | 129° |
| 2026-05-05 05:21 | 33.43828 | -111.99989 | 1135 ft | 0 kts | 126° |